LFKFLFKJ

Guest
Details From LFKF - Figari Sud Corse
To LFKJ - Napoleon Bonaparte
Flight Number -
Tags generated
Created
Modified
Stats Distance 31 nm / 57 km
Max Altitude 1,300 ft / 396 m
Waypoints 3
Social Downloads 1
Likes 0
Share VATSIM

Download

Looking for another format? Having issues loading an existing format? Contact us
Advertisement - Login to hide

Notes

Basic altitude profile: - Ascent Rate: 500ft/min - Ascent Speed: 140kts - Cruise Altitude: 3000ft - Cruise Speed: 200kts - Descent Rate: 500ft/min - Descent Speed: 140kts

Route

LFKF AJO LFKJ

ID Type Via Altitude Latitude Longitude Leg Dist Tot Dist Heading (true) Name
O LFKF APT - 0 ft / 0 m 41.50206˚ 9.09696˚ - 0 nm - Figari Sud Corse
AJO VOR - 1,300 ft / 396 m 41.77053˚ 8.77467˚ 21 nm 21 nm 318° / 318° AJACCIO VOR-DME
O LFKJ APT - 0 ft / 0 m 41.92289˚ 8.79959˚ 9 nm 30 nm 7° / 7° Napoleon Bonaparte

Altitude Profile

Advertisement - Login to hide

LFKF

Details ICAO LFKF (FSC)
Name Figari Sud Corse
Region France
Timezone Europe/Paris (UTC+1.0)
Stats Elevation 87 ft / 27 m (AMSL)
Location 41.502064° 9.096960°
Runways 1
Magnetic Variation 2.378° E

METAR

LFKF 140230Z AUTO 25015KT 220V280 9999 FEW033 BKN044 OVC052 13/08 Q1017

Decode

TAF

TAF LFKF 140200Z 1403/1503 26020G30KT 9999 SCT030 BKN060 TEMPO 1403/1409 4000 RA BKN014 OVC050 TEMPO 1405/1413 26020G40KT TEMPO 1500/1503 4000 RA BKN014 OVC050

Decode

Departure Runways

ID Width Length Bearing (true) Bearing (mag) Surface Threshold Offset Overrun Length
05 148 ft / 45 m 8,131 ft / 2,478 m 47.42° 45.04° Asphalt 0 ft / 0 m 0 ft / 0 m
23 148 ft / 45 m 8,131 ft / 2,478 m 227.44° 225.06° Asphalt 0 ft / 0 m 0 ft / 0 m

LFKJ

Details ICAO LFKJ (AJA)
Name Napoleon Bonaparte
Region France
Timezone Europe/Paris (UTC+1.0)
Stats Elevation 18 ft / 5 m (AMSL)
Location 41.922886° 8.799587°
Runways 2
Magnetic Variation 2.329° E

METAR

LFKJ 140230Z AUTO 25015KT 9999 BKN028 BKN047 BKN058 14/09 Q1017 TEMPO 25012G22KT 4000 RA BKN014 OVC050

Decode

TAF

TAF TAF LFKJ 140200Z 1403/1503 25012KT 9999 SCT030 BKN060 TEMPO 1403/1409 25015G25KT 4000 RA BKN014 OVC050 BECMG 1416/1419 VRB05KT TEMPO 1500/1503 4000 RA BKN014 OVC050

Decode

Destination Runways

ID Width Length Bearing (true) Bearing (mag) Surface Threshold Offset Overrun Length
02 180 ft / 55 m 7,899 ft / 2,408 m 24.94° 22.61° Asphalt 0 ft / 0 m 164 ft / 50 m
10 98 ft / 30 m 3,447 ft / 1,051 m 94.35° 92.02° Concrete 0 ft / 0 m 164 ft / 50 m
20 180 ft / 55 m 7,899 ft / 2,408 m 204.95° 202.62° Asphalt 745 ft / 227 m 230 ft / 70 m
28 98 ft / 30 m 3,447 ft / 1,051 m 274.36° 272.03° Concrete 213 ft / 65 m 0 ft / 0 m

Approach Navaids

Runway Type Ident Frequency Range Bearing (true) Bearing (mag) Slope Elevation
02 Localiser AC 110.30 MHz 27 nm / 50 km 24.92° 22.59° - 18 ft / 5 m (AMSL)
02 Glidescope AC 110.30 MHz 27 nm / 50 km 24.92° 22.59° 3.00° 18 ft / 5 m (AMSL)
02 DME AC 110.30 MHz 27 nm / 50 km - - - 18 ft / 5 m (AMSL)

Popular Alternatives